Time;durP1;ratioP1;P1;durP2;ratioP2;P2;SDS_P1;SDS_P2;PMS_P1;PMS_P2;Temp;Humidity;BMP_temperature;BMP_pressure;BME280_temperature;BME280_humidity;BME280_pressure;Samples;Min_cycle;Max_cycle;Signal;HPM_P1;HPM_P2
2020/12/06 00:02:12;;;;;;;18.90;16.27;;;;;;;6.99;73.41;98848.03;4932229;28;98737;-66
2020/12/06 00:04:39;;;;;;;17.17;14.52;;;;;;;7.03;73.59;98852.09;4932480;28;98615;-66
2020/12/06 00:07:05;;;;;;;18.08;14.95;;;;;;;7.02;73.68;98833.13;4933314;28;96988;-66
2020/12/06 00:09:31;;;;;;;16.15;14.50;;;;;;;7.04;73.03;98826.13;4922282;28;97052;-67
2020/12/06 00:11:58;;;;;;;19.50;16.40;;;;;;;7.03;73.29;98840.00;4918920;28;98538;-65
2020/12/06 00:14:25;;;;;;;16.73;14.95;;;;;;;7.06;73.08;98829.44;4933420;28;98382;-66
2020/12/06 00:16:51;;;;;;;16.90;14.63;;;;;;;6.96;72.88;98804.16;4932526;28;96575;-67
2020/12/06 00:19:17;;;;;;;19.98;15.35;;;;;;;6.87;73.53;98813.31;4934306;28;98203;-67
2020/12/06 00:21:45;;;;;;;17.00;15.18;;;;;;;6.80;73.93;98807.63;4932553;28;98580;-66
2020/12/06 00:24:12;;;;;;;17.38;15.52;;;;;;;7.03;72.67;98788.19;4933644;28;98569;-66
2020/12/06 00:26:38;;;;;;;18.27;16.35;;;;;;;6.89;73.26;98805.47;4934277;28;96877;-66
2020/12/06 00:29:04;;;;;;;19.10;15.93;;;;;;;7.00;73.32;98816.03;4934272;28;97038;-67
2020/12/06 00:31:31;;;;;;;18.75;16.02;;;;;;;7.02;73.27;98851.28;4933697;28;98599;-67
2020/12/06 00:33:57;;;;;;;18.25;15.60;;;;;;;7.05;73.20;98868.41;4932771;28;98391;-67
2020/12/06 00:36:24;;;;;;;20.23;18.02;;;;;;;7.08;73.10;98863.03;4933283;28;96453;-67
2020/12/06 00:38:50;;;;;;;21.30;16.88;;;;;;;7.08;73.36;98861.31;4933366;28;96718;-67
2020/12/06 00:41:16;;;;;;;18.88;16.88;;;;;;;7.03;73.11;98852.97;4933365;28;97534;-68
2020/12/06 00:43:43;;;;;;;18.80;15.45;;;;;;;7.03;72.98;98845.19;4932862;28;98559;-67
2020/12/06 00:46:10;;;;;;;18.42;16.02;;;;;;;7.03;73.65;98831.38;4913050;28;97168;-68
2020/12/06 00:48:36;;;;;;;17.20;14.77;;;;;;;7.05;73.00;98801.88;4913264;28;96736;-66
2020/12/06 00:51:05;;;;;;;20.92;16.85;;;;;;;6.89;73.15;98814.06;4927507;28;98531;-66
2020/12/06 00:53:34;;;;;;;18.95;16.17;;;;;;;6.95;73.59;98828.41;4931636;28;100102;-66
2020/12/06 00:56:03;;;;;;;19.27;15.98;;;;;;;6.95;73.46;98831.84;4933073;28;97922;-67
2020/12/06 00:58:31;;;;;;;19.77;15.90;;;;;;;6.99;73.64;98811.78;4915995;28;96789;-66
2020/12/06 01:00:57;;;;;;;19.40;16.15;;;;;;;7.07;72.72;98815.56;4932624;28;98551;-66
2020/12/06 01:03:23;;;;;;;16.35;14.10;;;;;;;7.07;73.02;98835.47;4932804;28;98612;-66
2020/12/06 01:05:50;;;;;;;17.15;14.40;;;;;;;7.10;72.65;98848.25;4933105;28;98436;-67
2020/12/06 01:08:16;;;;;;;19.23;16.35;;;;;;;7.15;72.68;98884.28;4933631;28;96652;-66
2020/12/06 01:10:42;;;;;;;17.80;14.85;;;;;;;7.10;72.58;98892.31;4932753;28;98558;-67
2020/12/06 01:13:09;;;;;;;16.45;14.02;;;;;;;7.00;73.51;98889.41;4933088;28;97672;-66
2020/12/06 01:15:35;;;;;;;17.60;13.88;;;;;;;7.01;72.75;98888.47;4927434;28;96832;-66
2020/12/06 01:18:02;;;;;;;15.55;13.93;;;;;;;7.17;72.35;98888.44;4935258;28;97032;-66
2020/12/06 01:20:28;;;;;;;15.05;13.27;;;;;;;7.17;72.04;98867.69;4919513;28;98562;-67
2020/12/06 01:22:54;;;;;;;16.10;13.55;;;;;;;7.12;72.50;98841.22;4929801;28;98818;-67
2020/12/06 01:25:21;;;;;;;15.93;13.80;;;;;;;7.21;72.00;98822.53;4933746;28;96943;-67
2020/12/06 01:27:47;;;;;;;15.38;13.43;;;;;;;7.07;72.52;98814.75;4929856;28;97950;-67
2020/12/06 01:30:13;;;;;;;16.90;11.73;;;;;;;7.14;72.49;98810.03;4900573;28;98755;-67
2020/12/06 01:32:40;;;;;;;16.70;14.07;;;;;;;7.19;72.48;98824.41;4920679;28;98558;-68
2020/12/06 01:35:06;;;;;;;15.57;13.90;;;;;;;7.25;71.93;98838.75;4925084;28;97910;-67
2020/12/06 01:37:32;;;;;;;13.90;11.73;;;;;;;7.25;72.21;98839.59;4922195;28;98101;-67
2020/12/06 01:39:59;;;;;;;18.83;14.68;;;;;;;7.07;72.62;98861.38;4906269;28;98101;-67
2020/12/06 01:42:25;;;;;;;16.90;14.05;;;;;;;7.08;73.02;98855.25;4922262;28;98637;-67
2020/12/06 01:44:58;;;;;;;18.80;15.88;;;;;;;7.14;72.58;98867.91;4924255;28;96878;-67
2020/12/06 01:47:29;;;;;;;19.73;14.38;;;;;;;7.19;73.14;98860.69;4922998;28;97681;-67
2020/12/06 01:49:55;;;;;;;19.77;13.90;;;;;;;7.08;73.80;98866.50;4921151;28;98600;-65
2020/12/06 01:52:21;;;;;;;16.98;14.75;;;;;;;7.19;72.96;98852.06;4919757;28;98695;-65
2020/12/06 01:54:51;;;;;;;19.77;14.35;;;;;;;7.12;73.41;98848.16;4910983;28;97330;-67
2020/12/06 01:57:17;;;;;;;18.88;14.70;;;;;;;7.16;73.86;98849.66;4925847;28;97765;-67
2020/12/06 01:59:43;;;;;;;19.70;14.85;;;;;;;7.18;73.62;98852.97;4924230;28;98598;-67
2020/12/06 02:02:10;;;;;;;21.02;15.10;;;;;;;7.22;73.14;98834.56;4928067;28;98579;-67
2020/12/06 02:04:36;;;;;;;18.35;15.32;;;;;;;7.13;73.55;98844.63;4923795;28;97264;-67
2020/12/06 02:07:03;;;;;;;23.50;16.73;;;;;;;7.18;74.03;98840.84;4891591;28;99958;-67
2020/12/06 02:09:29;;;;;;;23.80;17.10;;;;;;;7.19;73.44;98827.00;4928220;28;98536;-67
2020/12/06 02:11:57;;;;;;;23.98;16.98;;;;;;;7.14;74.20;98813.47;4922734;28;98171;-66
2020/12/06 02:14:23;;;;;;;20.52;16.58;;;;;;;7.15;73.80;98799.59;4926585;28;97496;-67
2020/12/06 02:16:54;;;;;;;21.00;17.02;;;;;;;7.16;74.33;98819.38;4923737;28;99743;-67
2020/12/06 02:19:21;;;;;;;23.38;17.33;;;;;;;7.31;73.46;98836.63;4921728;28;98273;-67
2020/12/06 02:21:47;;;;;;;25.00;16.00;;;;;;;7.21;73.59;98830.31;4923206;28;98576;-67
2020/12/06 02:24:15;;;;;;;24.00;17.23;;;;;;;7.20;74.05;98833.00;4924814;28;98372;-67
2020/12/06 02:26:43;;;;;;;24.77;16.20;;;;;;;7.18;74.57;98838.25;4921564;28;97166;-67
2020/12/06 02:29:09;;;;;;;32.03;18.67;;;;;;;7.14;74.30;98826.44;4920903;28;98573;-68
2020/12/06 02:31:36;;;;;;;20.92;14.40;;;;;;;7.21;74.85;98838.09;4926100;28;98626;-68
2020/12/06 02:34:03;;;;;;;23.15;15.80;;;;;;;7.32;74.47;98825.34;4923752;28;98785;-67
2020/12/06 02:36:30;;;;;;;28.17;17.80;;;;;;;7.10;75.64;98843.06;4922753;28;96963;-67
2020/12/06 02:38:56;;;;;;;30.23;16.23;;;;;;;7.19;75.21;98857.22;4922993;28;98888;-67
2020/12/06 02:41:33;;;;;;;31.77;17.05;;;;;;;7.17;75.43;98857.34;4925266;28;98651;-67
2020/12/06 02:44:00;;;;;;;32.88;15.55;;;;;;;7.03;75.98;98841.75;4920623;28;97115;-67
2020/12/06 02:46:26;;;;;;;29.95;16.67;;;;;;;7.09;76.28;98852.59;4921688;28;99765;-66
2020/12/06 02:48:52;;;;;;;31.92;15.52;;;;;;;6.97;76.77;98844.69;4920419;28;98669;-66
2020/12/06 02:51:19;;;;;;;39.10;18.83;;;;;;;7.04;76.22;98853.81;4921658;28;98583;-67
2020/12/06 02:53:45;;;;;;;39.92;21.27;;;;;;;7.09;75.58;98856.97;4908650;28;98269;-66
2020/12/06 02:56:11;;;;;;;41.33;17.92;;;;;;;6.96;75.96;98858.56;4908370;28;99523;-67
2020/12/06 02:58:38;;;;;;;40.65;17.85;;;;;;;7.02;75.93;98863.41;4921232;28;98568;-67
2020/12/06 03:01:04;;;;;;;48.40;21.08;;;;;;;6.75;76.83;98869.22;4922717;28;98568;-67
2020/12/06 03:03:30;;;;;;;31.35;17.90;;;;;;;6.99;76.79;98873.94;4923638;28;99989;-67
2020/12/06 03:05:57;;;;;;;33.45;16.38;;;;;;;6.97;76.82;98871.44;4920383;28;96836;-67
2020/12/06 03:08:23;;;;;;;37.10;17.98;;;;;;;7.08;76.71;98863.03;4923241;28;98482;-67
2020/12/06 03:10:49;;;;;;;32.53;19.10;;;;;;;7.12;76.22;98864.53;4924106;28;99103;-66
2020/12/06 03:13:16;;;;;;;32.03;17.80;;;;;;;7.13;76.47;98870.56;4925042;28;97015;-67
2020/12/06 03:15:42;;;;;;;36.28;18.70;;;;;;;7.12;76.09;98859.34;4925474;28;97380;-66
2020/12/06 03:18:08;;;;;;;34.95;17.70;;;;;;;7.03;76.03;98860.75;4920740;28;98737;-66
2020/12/06 03:20:35;;;;;;;38.00;18.48;;;;;;;7.15;76.09;98866.97;4921517;28;98784;-67
2020/12/06 03:23:01;;;;;;;32.25;17.83;;;;;;;7.19;75.81;98860.69;4920465;28;96920;-66
2020/12/06 03:25:28;;;;;;;35.42;15.82;;;;;;;7.09;75.83;98882.88;4924236;28;97283;-66
2020/12/06 03:27:54;;;;;;;34.88;19.52;;;;;;;7.08;76.01;98873.41;4912531;28;98437;-66
2020/12/06 03:30:20;;;;;;;31.95;17.85;;;;;;;7.14;75.60;98880.00;4922537;28;98387;-67
2020/12/06 03:32:47;;;;;;;28.95;16.05;;;;;;;7.10;75.78;98879.34;4924576;28;97942;-67
2020/12/06 03:35:13;;;;;;;34.22;16.55;;;;;;;7.17;75.48;98875.47;4930457;28;97622;-66
2020/12/06 03:37:39;;;;;;;30.00;17.25;;;;;;;7.14;74.88;98885.16;4924958;28;98565;-67
2020/12/06 03:40:06;;;;;;;35.88;17.42;;;;;;;7.17;74.90;98888.44;4929906;28;97252;-66
2020/12/06 03:42:32;;;;;;;35.80;19.15;;;;;;;7.22;74.79;98876.03;4934329;28;96625;-67
2020/12/06 03:44:59;;;;;;;33.25;19.38;;;;;;;7.21;74.96;98869.19;4917229;28;97064;-67
2020/12/06 03:47:25;;;;;;;33.35;19.00;;;;;;;7.12;74.84;98887.03;4934254;28;98667;-67
2020/12/06 03:49:51;;;;;;;37.47;18.40;;;;;;;7.22;74.87;98896.78;4932827;28;97929;-67
2020/12/06 03:52:18;;;;;;;39.90;20.77;;;;;;;7.13;75.33;98897.31;4933846;28;96728;-67
2020/12/06 03:54:44;;;;;;;34.05;19.27;;;;;;;7.09;75.46;98904.44;4932962;28;96718;-67
2020/12/06 03:57:10;;;;;;;35.58;18.50;;;;;;;7.09;75.62;98898.41;4934136;28;98752;-68
2020/12/06 03:59:37;;;;;;;35.33;20.92;;;;;;;7.16;75.36;98896.31;4933664;28;98663;-67
2020/12/06 04:02:03;;;;;;;37.00;21.30;;;;;;;7.18;75.13;98879.72;4933960;28;96612;-67
2020/12/06 04:04:29;;;;;;;35.90;21.27;;;;;;;7.22;75.24;98881.22;4934239;28;97220;-67
2020/12/06 04:06:56;;;;;;;30.40;18.35;;;;;;;7.14;75.03;98883.44;4927662;28;98646;-66
2020/12/06 04:09:22;;;;;;;33.50;20.38;;;;;;;7.17;75.08;98888.44;4934380;28;98547;-67
2020/12/06 04:11:48;;;;;;;35.60;20.42;;;;;;;7.04;75.60;98883.13;4932736;28;96892;-67
2020/12/06 04:14:15;;;;;;;38.45;18.38;;;;;;;6.95;75.44;98877.63;4933902;28;96575;-67
2020/12/06 04:16:41;;;;;;;39.72;18.58;;;;;;;6.98;75.63;98886.06;4932657;28;98580;-67
2020/12/06 04:19:09;;;;;;;38.83;21.35;;;;;;;7.00;75.59;98885.97;4930132;28;98475;-67
2020/12/06 04:21:35;;;;;;;39.90;21.90;;;;;;;7.09;75.22;98875.94;4922362;28;100678;-67
2020/12/06 04:24:01;;;;;;;34.88;21.13;;;;;;;7.01;75.42;98875.53;4922524;28;98186;-66
2020/12/06 04:26:28;;;;;;;37.38;18.85;;;;;;;7.11;75.29;98867.22;4924094;28;98686;-67
2020/12/06 04:28:56;;;;;;;33.25;20.67;;;;;;;7.09;75.35;98867.31;4923285;28;99615;-68
2020/12/06 04:31:22;;;;;;;39.35;21.10;;;;;;;7.14;75.22;98865.31;4919231;28;97773;-68
2020/12/06 04:33:49;;;;;;;41.70;20.98;;;;;;;7.14;75.20;98873.06;4922030;28;100187;-68
2020/12/06 04:36:15;;;;;;;37.78;19.38;;;;;;;7.03;75.54;98865.06;4925756;28;98485;-68
2020/12/06 04:38:42;;;;;;;42.08;20.88;;;;;;;7.05;75.98;98876.19;4926087;28;97480;-69
2020/12/06 04:41:08;;;;;;;31.48;18.48;;;;;;;7.07;75.23;98876.94;4926487;28;98028;-68
2020/12/06 04:43:34;;;;;;;32.22;17.92;;;;;;;6.99;75.89;98876.53;4915740;28;96750;-68
2020/12/06 04:46:01;;;;;;;39.83;21.55;;;;;;;7.06;75.26;98885.63;4915871;28;98966;-68
2020/12/06 04:48:40;;;;;;;36.53;22.35;;;;;;;7.05;75.51;98884.78;4916842;28;97400;-67
2020/12/06 04:51:07;;;;;;;37.78;19.42;;;;;;;7.15;75.57;98885.09;4934227;28;96942;-67
2020/12/06 04:53:39;;;;;;;32.05;18.33;;;;;;;7.12;74.47;98885.28;4922803;28;96925;-66
2020/12/06 04:56:14;;;;;;;33.35;18.80;;;;;;;7.10;74.33;98887.13;4929954;28;99069;-67
2020/12/06 04:58:41;;;;;;;35.95;18.35;;;;;;;7.02;75.15;98876.34;4933131;28;98557;-67
2020/12/06 05:01:07;;;;;;;33.03;17.92;;;;;;;7.08;74.57;98873.41;4915656;28;96675;-66
2020/12/06 05:03:34;;;;;;;27.90;16.08;;;;;;;7.13;74.47;98861.03;4937015;28;97065;-67
2020/12/06 05:06:01;;;;;;;30.63;18.42;;;;;;;7.07;74.40;98856.19;4935389;28;98702;-67
2020/12/06 05:08:28;;;;;;;31.42;17.02;;;;;;;7.05;75.20;98852.88;4913512;28;97529;-67
2020/12/06 05:10:54;;;;;;;33.88;18.65;;;;;;;7.07;74.57;98858.78;4913582;28;96659;-67
2020/12/06 05:13:20;;;;;;;36.00;19.63;;;;;;;7.09;74.93;98852.59;4912021;28;96464;-66
2020/12/06 05:15:47;;;;;;;35.20;19.13;;;;;;;7.04;74.25;98840.84;4936456;28;98704;-67
2020/12/06 05:18:13;;;;;;;34.35;17.60;;;;;;;7.09;74.34;98838.81;4936170;28;98455;-66
2020/12/06 05:20:40;;;;;;;37.30;19.02;;;;;;;6.98;74.96;98842.03;4934157;28;96647;-66
2020/12/06 05:23:06;;;;;;;32.90;18.23;;;;;;;7.07;74.68;98835.47;4928637;28;96975;-66
2020/12/06 05:25:32;;;;;;;32.00;18.83;;;;;;;7.05;74.33;98838.16;4929285;28;98585;-66
2020/12/06 05:27:59;;;;;;;37.08;20.70;;;;;;;7.07;74.81;98840.66;4911575;28;98878;-66
2020/12/06 05:30:25;;;;;;;32.65;19.73;;;;;;;7.04;75.10;98833.06;4922928;28;97139;-66
2020/12/06 05:32:52;;;;;;;35.58;19.70;;;;;;;7.14;74.36;98828.16;4926730;28;96720;-66
2020/12/06 05:35:19;;;;;;;33.22;20.33;;;;;;;7.15;74.33;98811.72;4927427;28;97430;-67
2020/12/06 05:37:45;;;;;;;32.67;19.98;;;;;;;7.08;74.44;98812.09;4927002;28;99253;-65
2020/12/06 05:40:16;;;;;;;31.75;18.55;;;;;;;7.02;75.35;98809.00;4923950;28;97483;-63
2020/12/06 05:42:43;;;;;;;32.53;19.85;;;;;;;7.04;74.78;98804.56;4924019;28;97653;-65
2020/12/06 05:45:10;;;;;;;32.72;19.27;;;;;;;6.95;75.14;98799.91;4909866;28;99072;-66
2020/12/06 05:47:36;;;;;;;34.20;20.65;;;;;;;6.84;75.65;98803.13;4925629;28;98400;-65
2020/12/06 05:50:03;;;;;;;41.10;23.00;;;;;;;6.85;74.98;98793.59;4924743;28;97192;-66
2020/12/06 05:52:31;;;;;;;35.97;19.40;;;;;;;7.00;74.52;98778.00;4930856;28;97118;-65
2020/12/06 05:54:58;;;;;;;41.15;19.63;;;;;;;7.01;74.24;98778.81;4925597;28;98422;-66
2020/12/06 05:57:42;;;;;;;;;;;;;;;7.02;74.37;98775.31;4912363;28;98611;-65
2020/12/06 06:00:08;;;;;;;30.73;16.83;;;;;;;7.00;73.90;98805.66;4908421;28;96851;-66
2020/12/06 06:02:35;;;;;;;38.42;20.85;;;;;;;7.00;74.61;98819.44;4920183;28;97426;-67
2020/12/06 06:05:04;;;;;;;37.00;20.38;;;;;;;7.01;74.86;98818.53;4907659;28;98633;-67
2020/12/06 06:07:31;;;;;;;34.72;20.13;;;;;;;7.05;73.62;98814.00;4911295;28;98702;-66
2020/12/06 06:10:03;;;;;;;32.95;19.52;;;;;;;6.99;74.32;98822.13;4894949;28;97558;-68
2020/12/06 06:12:33;;;;;;;37.45;20.13;;;;;;;6.98;74.20;98805.75;4929104;28;98011;-68
2020/12/06 06:15:03;;;;;;;36.03;18.38;;;;;;;7.02;74.41;98809.81;4925374;28;98459;-68
2020/12/06 06:17:30;;;;;;;29.10;17.25;;;;;;;7.06;74.15;98798.34;4924092;28;98685;-69
2020/12/06 06:19:57;;;;;;;31.17;19.83;;;;;;;6.95;74.63;98795.56;4926571;28;97830;-69
2020/12/06 06:22:31;;;;;;;31.17;17.80;;;;;;;7.10;74.05;98793.84;4926497;28;99256;-68
2020/12/06 06:24:59;;;;;;;33.58;17.90;;;;;;;6.87;74.85;98799.50;4910608;28;98109;-68
2020/12/06 06:27:34;;;;;;;33.30;18.85;;;;;;;7.03;73.63;98815.84;4894833;28;97652;-67
2020/12/06 06:30:02;;;;;;;34.60;19.20;;;;;;;6.96;74.24;98827.47;4909662;28;96809;-68
2020/12/06 06:32:29;;;;;;;31.85;17.67;;;;;;;6.97;74.25;98826.56;4925951;28;99007;-68
2020/12/06 06:34:55;;;;;;;33.85;18.38;;;;;;;7.05;74.00;98819.19;4925856;28;98882;-68
2020/12/06 06:37:26;;;;;;;38.47;21.02;;;;;;;7.03;74.39;98815.84;4922814;28;99371;-68
2020/12/06 06:39:53;;;;;;;34.63;19.13;;;;;;;7.06;74.07;98807.88;4908949;28;98925;-68
2020/12/06 06:42:19;;;;;;;36.22;19.60;;;;;;;6.99;73.85;98801.41;4894579;28;99015;-68
2020/12/06 06:44:45;;;;;;;31.23;17.23;;;;;;;7.08;73.67;98786.16;4910247;28;98655;-68
2020/12/06 06:47:13;;;;;;;28.23;15.40;;;;;;;7.09;73.51;98771.44;4928330;28;98531;-68
2020/12/06 06:49:55;;;;;;;27.85;17.63;;;;;;;7.03;73.43;98757.09;4925000;28;97490;-69
2020/12/06 06:52:23;;;;;;;29.75;16.65;;;;;;;7.05;72.94;98750.06;4923689;28;96797;-68
2020/12/06 06:54:51;;;;;;;29.48;16.40;;;;;;;6.94;73.49;98757.63;4920020;28;99554;-68
2020/12/06 06:57:18;;;;;;;32.55;17.00;;;;;;;6.98;73.68;98758.31;4907657;28;98405;-67
2020/12/06 06:59:49;;;;;;;29.25;15.32;;;;;;;7.07;73.83;98774.09;4925696;28;98501;-68
2020/12/06 07:02:19;;;;;;;29.33;17.73;;;;;;;7.10;74.13;98788.66;4910651;28;98582;-68
2020/12/06 07:04:48;;;;;;;31.65;15.65;;;;;;;7.01;73.52;98784.84;4923551;28;99005;-67
2020/12/06 07:07:15;;;;;;;28.27;15.85;;;;;;;7.00;73.25;98771.97;4909221;28;98574;-68
2020/12/06 07:09:42;;;;;;;27.75;14.35;;;;;;;7.03;74.03;98775.25;4924329;28;97217;-68
2020/12/06 07:12:09;;;;;;;30.98;17.75;;;;;;;7.04;73.78;98771.72;4921547;28;97269;-68
2020/12/06 07:14:35;;;;;;;31.85;16.73;;;;;;;7.09;73.69;98771.44;4920399;28;98441;-68
2020/12/06 07:17:02;;;;;;;29.38;16.65;;;;;;;7.08;73.77;98769.75;4920075;28;98846;-68
2020/12/06 07:19:28;;;;;;;35.55;18.67;;;;;;;7.10;73.55;98767.94;4926766;28;97355;-68
2020/12/06 07:21:55;;;;;;;31.65;17.30;;;;;;;7.08;73.62;98774.94;4925932;28;97658;-68
2020/12/06 07:24:22;;;;;;;24.48;14.70;;;;;;;7.10;73.16;98767.94;4909377;28;99786;-67
2020/12/06 07:26:48;;;;;;;21.23;15.65;;;;;;;6.88;74.35;98777.88;4910972;28;98664;-68
2020/12/06 07:29:14;;;;;;;22.98;14.00;;;;;;;6.95;74.02;98769.66;4921904;28;97223;-68
2020/12/06 07:31:41;;;;;;;22.38;14.02;;;;;;;7.00;74.04;98771.97;4922315;28;96758;-68
2020/12/06 07:34:07;;;;;;;20.05;11.90;;;;;;;6.97;73.75;98774.75;4924550;28;98432;-68
2020/12/06 07:36:34;;;;;;;19.63;12.93;;;;;;;6.90;73.04;98750.97;4923463;28;98488;-67
2020/12/06 07:39:15;;;;;;;18.95;11.50;;;;;;;6.95;73.40;98738.56;4926193;28;96864;-68
2020/12/06 07:41:48;;;;;;;17.00;11.48;;;;;;;6.86;73.26;98748.63;4927740;28;99059;-68
2020/12/06 07:44:15;;;;;;;18.98;12.32;;;;;;;6.86;73.82;98752.06;4924044;28;99870;-68
2020/12/06 07:46:42;;;;;;;18.48;12.15;;;;;;;6.95;73.22;98771.41;4934668;28;98545;-65
2020/12/06 07:49:08;;;;;;;15.48;12.05;;;;;;;7.02;72.84;98775.31;4935382;28;96543;-67
2020/12/06 07:51:35;;;;;;;14.57;10.13;;;;;;;7.17;72.15;98771.81;4934492;28;96724;-66
2020/12/06 07:54:02;;;;;;;15.57;10.85;;;;;;;7.00;73.08;98782.34;4934294;28;98670;-69
2020/12/06 07:56:29;;;;;;;19.30;11.27;;;;;;;7.05;72.74;98785.50;4933949;28;98545;-69
2020/12/06 07:59:17;;;;;;;21.70;11.98;;;;;;;6.93;73.52;98786.22;4933813;28;96519;-67
2020/12/06 08:01:44;;;;;;;27.90;14.30;;;;;;;7.00;73.46;98800.47;4930023;28;96585;-66
2020/12/06 08:04:20;;;;;;;28.38;14.90;;;;;;;7.03;73.07;98800.28;4931736;28;98459;-66
2020/12/06 08:06:47;;;;;;;23.80;12.98;;;;;;;6.98;73.70;98794.56;4926090;28;99357;-65
2020/12/06 08:09:13;;;;;;;24.23;14.98;;;;;;;6.92;73.49;98800.06;4934917;28;96496;-65
2020/12/06 08:11:45;;;;;;;18.27;12.60;;;;;;;6.83;73.89;98797.13;4917902;28;96730;-68
2020/12/06 08:14:19;;;;;;;23.45;13.88;;;;;;;7.05;72.79;98807.06;4932974;28;98696;-66
2020/12/06 08:16:59;;;;;;;25.83;15.32;;;;;;;7.11;72.58;98808.47;4916877;28;98851;-66
2020/12/06 08:19:26;;;;;;;23.35;16.30;;;;;;;6.86;72.72;98821.16;4933918;28;96899;-64
2020/12/06 08:22:02;;;;;;;23.65;13.20;;;;;;;7.09;72.59;98823.28;4923393;28;96715;-66
2020/12/06 08:24:30;;;;;;;19.02;13.80;;;;;;;7.11;72.02;98816.22;4910732;28;98544;-64
2020/12/06 08:26:58;;;;;;;19.90;14.95;;;;;;;7.09;72.24;98824.09;4934469;28;98522;-67
2020/12/06 08:29:43;;;;;;;17.40;13.57;;;;;;;7.06;72.52;98833.81;4932969;28;96688;-67
2020/12/06 08:32:11;;;;;;;20.30;14.10;;;;;;;6.98;72.72;98836.84;4939513;28;96621;-66
2020/12/06 08:34:37;;;;;;;24.85;15.77;;;;;;;6.98;72.62;98851.56;4905225;28;98545;-67
2020/12/06 08:37:17;;;;;;;23.30;16.45;;;;;;;7.02;72.39;98864.22;4937793;28;98639;-67
2020/12/06 08:39:44;;;;;;;21.80;15.73;;;;;;;6.93;72.57;98889.84;4938948;28;96668;-67
2020/12/06 08:42:18;;;;;;;22.70;16.05;;;;;;;6.86;73.39;98899.69;4937697;28;96744;-67
2020/12/06 08:44:54;;;;;;;24.00;18.33;;;;;;;6.87;72.53;98892.75;4939764;28;98606;-67
2020/12/06 08:47:21;;;;;;;25.05;16.90;;;;;;;6.86;72.85;98878.16;4941287;28;98387;-67
2020/12/06 08:50:11;;;;;;;20.30;15.07;;;;;;;6.99;73.01;98881.72;4932186;28;96597;-67
2020/12/06 08:52:37;;;;;;;24.00;16.02;;;;;;;6.85;73.51;98866.13;4933829;28;97116;-67
2020/12/06 08:55:27;;;;;;;20.52;13.38;;;;;;;6.73;73.45;98868.50;4939052;28;98467;-68
2020/12/06 08:57:54;;;;;;;22.35;14.77;;;;;;;6.88;72.76;98855.59;4937529;28;98418;-67
2020/12/06 09:00:21;;;;;;;25.23;15.82;;;;;;;6.81;73.33;98836.97;4921238;28;97340;-68
2020/12/06 09:02:47;;;;;;;21.45;15.05;;;;;;;6.88;72.79;98809.81;4939608;28;96771;-68
2020/12/06 09:05:14;;;;;;;20.52;15.63;;;;;;;6.88;73.24;98803.78;4938937;28;98651;-67
2020/12/06 09:07:41;;;;;;;23.88;17.10;;;;;;;6.95;72.86;98815.47;4940445;28;98421;-68
2020/12/06 09:10:07;;;;;;;26.15;18.50;;;;;;;7.03;72.31;98824.47;4942530;28;97844;-67
2020/12/06 09:12:36;;;;;;;20.42;14.20;;;;;;;7.01;72.58;98826.28;4937395;28;96786;-65
2020/12/06 09:15:04;;;;;;;18.25;13.95;;;;;;;7.06;72.81;98839.81;4937582;28;98536;-66
2020/12/06 09:17:30;;;;;;;22.98;15.07;;;;;;;7.14;72.71;98838.53;4939336;28;98430;-65
2020/12/06 09:19:57;;;;;;;24.23;16.00;;;;;;;7.09;72.15;98855.19;4941558;28;96548;-66
2020/12/06 09:22:23;;;;;;;23.55;15.93;;;;;;;7.09;72.76;98864.72;4940483;28;96653;-66
2020/12/06 09:24:49;;;;;;;18.42;13.40;;;;;;;7.03;72.64;98857.28;4939394;28;98612;-68
2020/12/06 09:27:16;;;;;;;19.30;14.70;;;;;;;7.15;72.50;98854.00;4945135;28;98447;-69
2020/12/06 09:29:42;;;;;;;17.38;12.30;;;;;;;7.25;72.14;98842.19;4943236;28;97931;-70
2020/12/06 09:32:09;;;;;;;20.08;13.70;;;;;;;7.16;71.90;98845.31;4945144;28;97654;-69
2020/12/06 09:34:36;;;;;;;20.45;12.65;;;;;;;7.25;72.14;98854.31;4918292;28;98688;-69
2020/12/06 09:37:02;;;;;;;17.30;12.05;;;;;;;7.19;72.54;98867.59;4936100;28;98651;-68
2020/12/06 09:39:29;;;;;;;17.20;12.32;;;;;;;7.25;72.08;98873.28;4936334;28;96611;-68
2020/12/06 09:41:55;;;;;;;19.92;14.13;;;;;;;7.27;72.09;98880.97;4934698;28;97213;-67
2020/12/06 09:44:21;;;;;;;21.88;15.73;;;;;;;7.27;71.86;98871.44;4933167;28;98654;-66
2020/12/06 09:46:48;;;;;;;24.05;14.05;;;;;;;7.16;72.33;98866.03;4932678;28;98659;-65
2020/12/06 09:49:15;;;;;;;17.63;12.43;;;;;;;7.14;72.66;98867.03;4916595;28;97509;-66
2020/12/06 09:51:42;;;;;;;15.35;12.18;;;;;;;7.11;73.11;98868.06;4899638;28;96872;-66
2020/12/06 09:54:09;;;;;;;21.13;14.75;;;;;;;7.15;72.71;98863.53;4932555;28;100221;-67
2020/12/06 09:56:36;;;;;;;24.45;14.57;;;;;;;7.09;72.35;98854.38;4929651;28;98704;-67
2020/12/06 09:59:02;;;;;;;22.90;18.75;;;;;;;7.20;72.39;98846.81;4931319;28;96984;-67
2020/12/06 10:01:29;;;;;;;21.60;15.20;;;;;;;7.16;72.73;98840.13;4934343;28;96704;-65
2020/12/06 10:03:56;;;;;;;18.08;14.55;;;;;;;7.11;73.10;98841.31;4930583;28;98660;-67
2020/12/06 10:06:25;;;;;;;17.48;12.88;;;;;;;7.24;72.51;98834.47;4933710;28;98627;-68
2020/12/06 10:08:52;;;;;;;14.85;11.70;;;;;;;7.14;72.46;98841.13;4932809;28;97101;-68
2020/12/06 10:11:19;;;;;;;18.17;13.52;;;;;;;7.19;72.86;98839.09;4932789;28;97348;-66
2020/12/06 10:13:45;;;;;;;17.23;14.20;;;;;;;7.22;72.79;98837.16;4932818;28;98618;-67
2020/12/06 10:16:13;;;;;;;18.48;13.27;;;;;;;7.36;72.26;98831.19;4933247;28;98436;-67
2020/12/06 10:18:40;;;;;;;18.38;14.23;;;;;;;7.40;72.15;98832.66;4915861;28;97422;-67
2020/12/06 10:21:07;;;;;;;18.55;12.88;;;;;;;7.32;72.13;98832.28;4935373;28;96590;-69
2020/12/06 10:23:33;;;;;;;19.27;13.77;;;;;;;7.30;72.31;98821.19;4931429;28;99157;-66
2020/12/06 10:26:01;;;;;;;19.40;13.35;;;;;;;7.31;72.50;98822.84;4914844;28;98869;-66
2020/12/06 10:28:28;;;;;;;18.52;13.63;;;;;;;7.34;72.76;98804.50;4932356;28;97030;-65
2020/12/06 10:30:55;;;;;;;16.58;11.68;;;;;;;7.42;72.27;98798.88;4933423;28;96774;-65
2020/12/06 10:33:22;;;;;;;14.48;10.15;;;;;;;7.37;72.99;98780.16;4933198;28;99748;-65
2020/12/06 10:35:48;;;;;;;12.77;10.05;;;;;;;7.39;73.12;98778.31;4933761;28;98588;-65
2020/12/06 10:38:15;;;;;;;15.68;9.57;;;;;;;7.49;73.06;98769.03;4933820;28;96780;-66
2020/12/06 10:40:41;;;;;;;12.10;8.60;;;;;;;7.35;73.09;98765.53;4934558;28;96682;-66
2020/12/06 10:43:07;;;;;;;10.63;8.63;;;;;;;7.42;72.95;98771.19;4916848;28;98524;-62
2020/12/06 10:45:34;;;;;;;9.38;7.03;;;;;;;7.47;72.50;98766.56;4934737;28;98704;-66
2020/12/06 10:48:02;;;;;;;10.13;7.43;;;;;;;7.63;71.88;98760.44;4933906;28;96787;-66
2020/12/06 10:50:29;;;;;;;7.97;6.28;;;;;;;7.41;72.19;98761.75;4933572;28;97756;-66
2020/12/06 10:52:56;;;;;;;7.72;5.95;;;;;;;7.52;71.89;98753.31;4928279;28;98509;-65
2020/12/06 10:55:24;;;;;;;8.52;5.47;;;;;;;7.58;71.53;98753.75;4925416;28;98488;-65
2020/12/06 10:57:54;;;;;;;6.30;4.78;;;;;;;7.66;71.49;98745.50;4924094;28;96783;-63
2020/12/06 11:00:21;;;;;;;5.85;4.78;;;;;;;7.53;71.00;98739.41;4927136;28;97418;-66
2020/12/06 11:02:47;;;;;;;5.38;4.60;;;;;;;7.56;70.85;98715.88;4914592;28;97928;-63
2020/12/06 11:05:16;;;;;;;4.47;3.63;;;;;;;7.58;70.75;98714.03;4933169;28;97670;-62
2020/12/06 11:07:43;;;;;;;4.70;4.07;;;;;;;7.64;70.80;98713.66;4933954;28;96560;-64
2020/12/06 11:10:09;;;;;;;5.18;4.38;;;;;;;7.64;71.17;98705.03;4931470;28;97841;-63
2020/12/06 11:12:39;;;;;;;5.57;4.90;;;;;;;7.67;70.83;98694.47;4934921;28;98718;-69
2020/12/06 11:15:05;;;;;;;5.38;3.95;;;;;;;7.45;71.53;98695.78;4931902;28;98590;-69
2020/12/06 11:17:32;;;;;;;3.75;3.45;;;;;;;7.54;71.30;98678.84;4933874;28;96579;-67
2020/12/06 11:19:58;;;;;;;4.18;3.75;;;;;;;7.50;72.04;98664.41;4934402;28;97406;-68
2020/12/06 11:22:25;;;;;;;3.17;2.75;;;;;;;7.58;71.24;98657.00;4926460;28;99371;-67
2020/12/06 11:24:52;;;;;;;3.72;3.30;;;;;;;7.53;71.56;98661.63;4915153;28;98478;-67
2020/12/06 11:27:18;;;;;;;3.75;2.70;;;;;;;7.70;71.56;98656.19;4920124;28;96683;-67
2020/12/06 11:29:45;;;;;;;2.88;2.67;;;;;;;7.71;71.93;98637.13;4922505;28;97803;-72